Time;durP1;ratioP1;P1;durP2;ratioP2;P2;SDS_P1;SDS_P2;PMS_P1;PMS_P2;Temp;Humidity;BMP_temperature;BMP_pressure;BME280_temperature;BME280_humidity;BME280_pressure;Samples;Min_cycle;Max_cycle;Signal;HPM_P1;HPM_P2
2022/01/16 00:04:05;;;;;;;9.23;5.90;;;;;;;20.10;34.74;102283.38;7307291;19;132000;-62
2022/01/16 00:04:09;;;;;;;8.00;6.15;;;;;;;20.08;34.59;102291.09;7310363;19;130088;-63
2022/01/16 00:06:43;;;;;;;7.28;5.70;;;;;;;20.07;34.59;102310.72;7306634;19;128976;-62
2022/01/16 00:09:10;;;;;;;7.05;6.05;;;;;;;20.06;34.60;102309.06;7311329;19;131125;-62
2022/01/16 00:11:37;;;;;;;7.65;6.13;;;;;;;20.04;34.33;102305.66;7306689;19;136008;-62
2022/01/16 00:14:05;;;;;;;7.15;5.72;;;;;;;20.02;34.57;102307.78;7311942;19;129518;-63
2022/01/16 00:16:32;;;;;;;7.07;5.82;;;;;;;20.01;34.55;102306.06;7305280;19;133165;-63
2022/01/16 00:18:59;;;;;;;8.27;6.60;;;;;;;19.99;34.81;102309.94;7308790;19;132073;-62
2022/01/16 00:21:32;;;;;;;7.55;6.32;;;;;;;19.97;34.34;102303.69;7307508;19;131860;-62
2022/01/16 00:23:59;;;;;;;8.80;6.25;;;;;;;19.96;34.57;102306.72;7308269;19;131836;-62
2022/01/16 00:26:26;;;;;;;8.55;5.72;;;;;;;19.93;34.54;102299.69;7311441;19;129129;-62
2022/01/16 00:28:53;;;;;;;6.63;5.93;;;;;;;19.91;34.83;102287.06;7307712;19;131240;-63
2022/01/16 00:31:22;;;;;;;6.85;5.85;;;;;;;19.90;34.38;102288.16;7311904;19;131639;-62
2022/01/16 00:33:50;;;;;;;7.65;6.43;;;;;;;19.88;34.78;102291.16;7307606;19;129057;-62
2022/01/16 00:36:19;;;;;;;7.07;5.57;;;;;;;19.87;34.64;102300.56;7309987;19;129222;-62
2022/01/16 00:38:47;;;;;;;7.78;5.82;;;;;;;19.86;34.63;102304.41;7313587;19;131067;-62
2022/01/16 00:41:18;;;;;;;6.60;5.43;;;;;;;19.85;34.74;102299.91;7315705;19;133283;-62
2022/01/16 00:43:45;;;;;;;7.82;6.25;;;;;;;19.83;34.39;102302.06;7317099;19;130862;-62
2022/01/16 00:46:12;;;;;;;7.22;5.68;;;;;;;19.82;34.46;102297.59;7315258;19;128873;-63
2022/01/16 00:48:39;;;;;;;7.10;5.70;;;;;;;19.80;34.30;102288.66;7316178;19;131582;-63
2022/01/16 00:51:05;;;;;;;7.00;5.88;;;;;;;19.79;34.35;102292.50;7313859;19;131120;-62
2022/01/16 00:53:32;;;;;;;7.78;6.28;;;;;;;19.77;34.73;102300.19;7316205;19;128892;-62
2022/01/16 00:55:59;;;;;;;7.40;5.55;;;;;;;19.76;34.34;102290.97;7316539;19;129086;-62
2022/01/16 00:58:26;;;;;;;9.90;5.78;;;;;;;19.75;34.78;102269.00;7313337;19;131146;-62
2022/01/16 01:00:52;;;;;;;7.30;5.45;;;;;;;19.74;34.37;102264.53;7316961;19;132132;-62
2022/01/16 01:03:19;;;;;;;6.68;5.28;;;;;;;19.73;34.68;102271.16;7312838;19;128901;-62
2022/01/16 01:05:46;;;;;;;9.27;6.28;;;;;;;19.71;34.62;102264.97;7315958;19;128898;-62
2022/01/16 01:08:13;;;;;;;6.88;5.63;;;;;;;19.67;34.32;102259.88;7314062;19;133027;-62
2022/01/16 01:10:42;;;;;;;6.95;5.40;;;;;;;19.66;34.76;102282.28;7315257;19;133710;-62
2022/01/16 01:13:12;;;;;;;6.70;5.40;;;;;;;19.65;34.35;102275.03;7316072;19;132378;-62
2022/01/16 01:15:46;;;;;;;8.98;5.38;;;;;;;19.64;34.61;102278.88;7312430;19;129045;-62
2022/01/16 01:18:14;;;;;;;6.68;5.78;;;;;;;19.62;34.59;102270.78;7318559;19;131090;-62
2022/01/16 01:20:42;;;;;;;6.70;5.60;;;;;;;19.61;34.65;102274.63;7312085;19;131865;-62
2022/01/16 01:23:10;;;;;;;7.50;5.65;;;;;;;19.59;34.49;102262.88;7314500;19;129084;-63
2022/01/16 01:25:38;;;;;;;6.60;5.80;;;;;;;19.59;34.61;102285.09;7312794;19;129426;-62
2022/01/16 01:28:07;;;;;;;6.30;5.20;;;;;;;19.56;34.78;102282.78;7315209;19;131697;-63
2022/01/16 01:30:38;;;;;;;6.43;5.55;;;;;;;19.56;34.46;102281.91;7313122;19;131885;-62
2022/01/16 01:33:05;;;;;;;7.50;5.57;;;;;;;19.54;34.40;102284.91;7312701;19;129028;-63
2022/01/16 01:35:38;;;;;;;7.53;5.57;;;;;;;19.52;34.35;102231.53;7316183;19;130175;-62
2022/01/16 01:38:07;;;;;;;7.10;5.75;;;;;;;19.51;34.49;102204.84;7311351;19;130985;-63
2022/01/16 01:40:34;;;;;;;8.82;5.43;;;;;;;19.50;34.72;102217.03;7316117;19;132135;-63
2022/01/16 01:51:00;;;;;;;6.32;5.63;;;;;;;19.49;34.59;102209.75;7311814;19;131151;-62
2022/01/16 01:51:33;;;;;;;9.80;5.97;;;;;;;19.44;34.74;102256.78;7307813;19;131127;-63
2022/01/16 01:54:01;;;;;;;8.85;5.80;;;;;;;19.44;34.60;102262.31;7316368;19;128991;-62
2022/01/16 01:56:28;;;;;;;7.25;5.15;;;;;;;19.43;34.76;102271.72;7311327;19;131318;-62
2022/01/16 01:58:57;;;;;;;7.75;5.03;;;;;;;19.42;34.34;102261.69;7314413;19;131222;-63
2022/01/16 02:01:25;;;;;;;8.05;5.35;;;;;;;19.42;34.73;102286.66;7310571;19;131210;-62
2022/01/16 02:03:53;;;;;;;9.55;5.43;;;;;;;19.40;34.62;102284.09;7312736;19;129408;-62
2022/01/16 02:06:22;;;;;;;8.50;5.50;;;;;;;19.40;34.77;102295.19;7314599;19;128766;-62
2022/01/16 02:08:52;;;;;;;8.43;5.60;;;;;;;19.38;34.74;102292.63;7312972;19;132212;-62
2022/01/16 02:11:23;;;;;;;8.25;5.68;;;;;;;19.37;34.54;102277.06;7314708;19;132495;-62
2022/01/16 02:13:57;;;;;;;8.05;5.78;;;;;;;19.36;34.78;102286.44;7309664;19;130897;-63
2022/01/16 02:33:22;;;;;;;7.45;5.78;;;;;;;19.24;34.60;102282.66;7314122;19;130898;-62
2022/01/16 02:35:40;;;;;;;8.50;5.90;;;;;;;19.26;34.50;102301.88;7311033;19;129063;-62
2022/01/16 02:38:09;;;;;;;7.82;5.57;;;;;;;19.24;34.32;102299.28;7315094;19;129030;-62
2022/01/16 02:40:39;;;;;;;6.65;5.50;;;;;;;19.22;34.29;102299.53;7307113;19;131839;-62
2022/01/16 02:43:06;;;;;;;9.07;5.70;;;;;;;19.23;34.33;102294.81;7312400;19;131482;-62
2022/01/16 02:45:36;;;;;;;10.27;5.88;;;;;;;19.22;34.45;102291.19;7311004;19;128956;-62
2022/01/16 02:48:06;;;;;;;8.88;6.13;;;;;;;19.21;34.39;102272.84;7312900;19;128936;-63
2022/01/16 02:50:37;;;;;;;8.27;5.80;;;;;;;19.21;34.50;102269.19;7312281;19;131655;-62
2022/01/16 02:53:11;;;;;;;7.43;5.45;;;;;;;19.20;34.35;102273.03;7307951;19;131185;-62
2022/01/16 02:55:41;;;;;;;8.20;5.57;;;;;;;19.18;34.73;102270.47;7315007;19;128890;-62
2022/01/16 02:58:08;;;;;;;6.80;5.45;;;;;;;19.17;34.69;102268.75;7308627;19;130892;-62
2022/01/16 03:00:35;;;;;;;9.93;6.07;;;;;;;19.16;34.39;102255.94;7309952;19;132236;-63
2022/01/16 03:03:02;;;;;;;8.32;5.53;;;;;;;19.16;34.74;102255.13;7308013;19;131152;-62
2022/01/16 03:05:29;;;;;;;6.90;5.68;;;;;;;19.15;34.37;102258.97;7312174;19;128828;-62
2022/01/16 03:07:56;;;;;;;7.13;5.55;;;;;;;19.14;34.45;102252.53;7312551;19;129319;-62
2022/01/16 03:13:08;;;;;;;7.93;5.63;;;;;;;19.13;34.27;102238.91;7313481;19;131145;-62
2022/01/16 03:15:38;;;;;;;7.47;5.47;;;;;;;19.11;34.59;102238.25;7307566;19;131896;-63
2022/01/16 03:23:21;;;;;;;10.85;5.53;;;;;;;19.07;34.77;102238.72;7306822;19;131045;-62
2022/01/16 03:25:50;;;;;;;7.07;5.72;;;;;;;19.08;34.32;102236.78;7313200;19;128813;-62
2022/01/16 03:28:17;;;;;;;5.38;4.88;;;;;;;19.07;34.66;102235.94;7311664;19;132977;-62
2022/01/16 03:30:46;;;;;;;11.35;6.13;;;;;;;19.07;34.64;102229.53;7309377;19;132597;-62
2022/01/16 03:33:13;;;;;;;8.82;6.18;;;;;;;19.05;34.80;102229.75;7313681;19;131113;-62
2022/01/16 03:35:40;;;;;;;7.78;5.22;;;;;;;19.05;34.74;102238.09;7309130;19;130904;-62
2022/01/16 03:38:07;;;;;;;8.93;5.93;;;;;;;19.05;34.69;102240.84;7313724;19;128949;-63
2022/01/16 03:40:34;;;;;;;8.98;5.68;;;;;;;19.03;34.75;102220.78;7306353;19;131942;-63
2022/01/16 03:43:11;;;;;;;6.28;5.35;;;;;;;19.04;34.36;102230.81;7311055;19;131380;-63
2022/01/16 03:45:43;;;;;;;6.13;5.38;;;;;;;19.04;34.41;102229.97;7308989;19;129325;-62
2022/01/16 03:48:10;;;;;;;6.18;5.15;;;;;;;19.02;34.66;102213.53;7308552;19;128965;-63
2022/01/16 03:50:37;;;;;;;7.10;5.50;;;;;;;19.01;34.68;102225.69;7309412;19;131150;-62
2022/01/16 03:53:04;;;;;;;7.80;6.03;;;;;;;19.00;34.27;102229.53;7306346;19;131694;-62
2022/01/16 03:55:33;;;;;;;7.43;5.47;;;;;;;19.01;34.25;102241.50;7311347;19;129015;-63
2022/01/16 03:58:00;;;;;;;6.90;5.75;;;;;;;19.00;34.60;102240.63;7307501;19;129156;-63
2022/01/16 04:00:27;;;;;;;8.35;6.03;;;;;;;18.99;34.31;102247.25;7309850;19;131511;-63
2022/01/16 04:02:54;;;;;;;6.90;5.80;;;;;;;18.97;34.58;102241.06;7307047;19;131088;-63
2022/01/16 04:05:21;;;;;;;6.50;5.28;;;;;;;18.98;34.66;102242.78;7310861;19;130384;-62
2022/01/16 04:07:48;;;;;;;7.53;6.00;;;;;;;18.96;34.67;102244.91;7309032;19;130546;-62
2022/01/16 04:10:15;;;;;;;6.30;5.30;;;;;;;18.95;34.21;102240.44;7308465;19;132067;-63
2022/01/16 04:12:44;;;;;;;6.30;5.28;;;;;;;18.96;34.18;102241.28;7315243;19;131309;-62
2022/01/16 04:17:38;;;;;;;7.50;5.45;;;;;;;18.95;34.51;102243.22;7318001;19;130587;-62
2022/01/16 04:20:05;;;;;;;6.57;5.63;;;;;;;18.94;34.67;102246.19;7314172;19;132369;-62
2022/01/16 04:22:32;;;;;;;10.52;5.93;;;;;;;18.93;34.21;102242.59;7316015;19;131013;-62
2022/01/16 04:24:59;;;;;;;8.05;5.63;;;;;;;;;;7313597;19;130526;-62
2022/01/16 04:27:25;;;;;;;9.88;6.10;;;;;;;18.91;34.20;102247.50;7314719;19;130277;-62
2022/01/16 04:29:52;;;;;;;7.50;5.82;;;;;;;18.90;34.48;102248.56;7317786;19;131922;-62
2022/01/16 04:32:19;;;;;;;7.75;5.53;;;;;;;18.89;34.62;102242.13;7315666;19;136206;-62
2022/01/16 04:34:45;;;;;;;6.88;5.47;;;;;;;18.88;34.36;102248.78;7318214;19;131499;-62
2022/01/16 04:37:13;;;;;;;8.30;5.97;;;;;;;18.88;34.49;102245.16;7314231;19;133530;-62
2022/01/16 04:39:48;;;;;;;6.55;5.45;;;;;;;18.87;34.31;102251.75;7318929;19;131163;-62
2022/01/16 04:45:01;;;;;;;7.28;5.40;;;;;;;18.85;34.30;102245.56;7313942;19;129010;-62
2022/01/16 04:47:29;;;;;;;8.15;5.85;;;;;;;18.85;34.64;102235.34;7314137;19;129170;-62
2022/01/16 04:49:55;;;;;;;8.85;5.75;;;;;;;18.83;34.45;102242.19;7314656;19;131158;-63
2022/01/16 04:52:22;;;;;;;7.60;5.20;;;;;;;18.84;34.59;102254.94;7316996;19;131996;-62
2022/01/16 04:54:49;;;;;;;6.05;5.45;;;;;;;18.84;34.57;102258.59;7311575;19;129892;-62
2022/01/16 04:57:16;;;;;;;7.82;5.78;;;;;;;18.83;34.58;102248.56;7318421;19;129032;-62
2022/01/16 04:59:43;;;;;;;6.43;5.60;;;;;;;18.83;34.33;102247.72;7313528;19;131522;-62
2022/01/16 05:02:10;;;;;;;7.15;5.38;;;;;;;18.82;34.16;102251.56;7314196;19;131099;-63
2022/01/16 05:04:37;;;;;;;6.68;5.53;;;;;;;18.81;34.47;102253.47;7313886;19;130869;-62
2022/01/16 05:07:06;;;;;;;6.72;5.85;;;;;;;18.79;34.35;102250.06;7313901;19;131089;-62
2022/01/16 05:09:32;;;;;;;6.85;5.63;;;;;;;18.79;34.32;102238.13;7315677;19;131730;-62
2022/01/16 05:12:02;;;;;;;6.72;5.40;;;;;;;18.80;34.27;102239.84;7313638;19;131206;-62
2022/01/16 05:17:14;;;;;;;7.57;5.60;;;;;;;18.77;34.67;102254.97;7313912;19;129366;-62
2022/01/16 05:19:41;;;;;;;6.30;5.40;;;;;;;18.76;34.58;102250.50;7316686;19;133828;-62
2022/01/16 05:22:08;;;;;;;8.63;6.05;;;;;;;18.75;34.55;102243.25;7313318;19;130948;-62
2022/01/16 05:24:35;;;;;;;7.80;5.18;;;;;;;18.75;34.57;102251.56;7312520;19;129534;-62
2022/01/16 05:27:05;;;;;;;6.97;5.63;;;;;;;18.73;34.59;102254.53;7316419;19;129194;-62
2022/01/16 05:29:31;;;;;;;5.88;5.25;;;;;;;18.73;34.43;102253.69;7311167;19;131348;-62
2022/01/16 05:31:58;;;;;;;6.78;5.32;;;;;;;18.72;34.16;102260.31;7316066;19;131130;-62
2022/01/16 05:34:26;;;;;;;6.35;5.70;;;;;;;18.72;34.48;102266.69;7313728;19;130313;-62
2022/01/16 05:36:53;;;;;;;6.20;5.57;;;;;;;18.71;34.37;102259.44;7314493;19;129086;-62
2022/01/16 05:39:20;;;;;;;8.43;5.95;;;;;;;18.72;34.69;102268.63;7312870;19;131464;-62
2022/01/16 05:41:47;;;;;;;5.80;5.10;;;;;;;18.69;34.47;102261.59;7312969;19;132172;-62
2022/01/16 05:44:14;;;;;;;8.80;5.30;;;;;;;18.69;34.39;102261.59;7314489;19;129021;-62
2022/01/16 05:46:41;;;;;;;7.00;5.40;;;;;;;18.69;34.26;102271.81;7312816;19;128883;-62
2022/01/16 05:49:08;;;;;;;5.97;4.93;;;;;;;18.68;34.35;102276.53;7315675;19;131835;-62
2022/01/16 05:51:34;;;;;;;9.60;5.53;;;;;;;18.68;34.30;102292.28;7310500;19;131802;-62
2022/01/16 05:54:01;;;;;;;8.40;5.45;;;;;;;18.67;34.25;102285.91;7315034;19;129748;-63
2022/01/16 05:56:28;;;;;;;7.80;5.55;;;;;;;18.67;34.31;102279.50;7311921;19;129448;-62
2022/01/16 05:58:55;;;;;;;6.10;5.50;;;;;;;18.66;34.17;102289.75;7314863;19;131313;-63
2022/01/16 06:01:21;;;;;;;6.65;5.47;;;;;;;18.66;34.34;102277.78;7311572;19;131261;-62
2022/01/16 06:03:48;;;;;;;9.30;5.50;;;;;;;18.64;34.58;102275.22;7314605;19;130583;-62
2022/01/16 06:06:15;;;;;;;7.22;5.50;;;;;;;18.65;34.16;102281.63;7315021;19;129099;-62
2022/01/16 06:08:43;;;;;;;6.72;5.60;;;;;;;18.64;34.28;102282.72;7311196;19;131159;-62
2022/01/16 06:11:09;;;;;;;7.25;5.97;;;;;;;18.63;34.25;102289.31;7314769;19;131641;-62
2022/01/16 06:13:36;;;;;;;7.32;5.80;;;;;;;18.62;34.58;102285.69;7312328;19;129029;-62
2022/01/16 06:16:03;;;;;;;7.78;5.95;;;;;;;18.60;34.18;102290.56;7314530;19;129298;-62
2022/01/16 06:18:31;;;;;;;7.78;5.68;;;;;;;18.58;34.61;102282.50;7312243;19;131157;-62
2022/01/16 06:20:57;;;;;;;6.68;5.30;;;;;;;18.60;34.56;102285.03;7313151;19;131064;-62
2022/01/16 06:23:24;;;;;;;6.43;5.03;;;;;;;18.58;34.38;102287.19;7313845;19;129188;-62
2022/01/16 06:25:54;;;;;;;6.80;5.45;;;;;;;18.57;34.21;102286.31;7310073;19;129518;-62
2022/01/16 06:28:27;;;;;;;6.30;5.05;;;;;;;18.57;34.59;102297.41;7315998;19;131201;-62
2022/01/16 06:30:54;;;;;;;7.07;5.45;;;;;;;18.56;34.38;102292.09;7309561;19;131011;-62
2022/01/16 06:33:21;;;;;;;6.57;5.30;;;;;;;18.56;34.14;102289.31;7314272;19;128942;-62
2022/01/16 06:35:48;;;;;;;8.45;5.35;;;;;;;18.56;34.43;102300.41;7310006;19;129951;-62
2022/01/16 06:38:14;;;;;;;5.90;5.22;;;;;;;18.55;34.37;102321.72;7313276;19;132452;-63
2022/01/16 06:40:41;;;;;;;6.65;5.68;;;;;;;18.55;34.45;102321.72;7309799;19;131697;-62
2022/01/16 06:43:08;;;;;;;7.05;5.57;;;;;;;18.54;34.39;102331.09;7311876;19;128983;-62
2022/01/16 06:45:35;;;;;;;6.03;5.43;;;;;;;18.54;34.20;102330.25;7311615;19;129725;-62
2022/01/16 06:48:02;;;;;;;7.50;6.03;;;;;;;18.52;34.16;102326.81;7311297;19;132244;-62
2022/01/16 06:50:29;;;;;;;6.65;5.57;;;;;;;18.53;34.29;102328.53;7309210;19;131369;-62
2022/01/16 06:52:55;;;;;;;7.30;5.57;;;;;;;18.52;34.48;102326.81;7310604;19;130534;-62
2022/01/16 06:55:22;;;;;;;7.05;5.88;;;;;;;18.51;34.32;102325.13;7314091;19;129200;-62
2022/01/16 06:57:49;;;;;;;7.70;5.82;;;;;;;18.51;34.53;102336.19;7311316;19;133383;-62
2022/01/16 07:00:16;;;;;;;7.90;5.68;;;;;;;18.50;34.16;102342.81;7312845;19;132041;-62
2022/01/16 07:02:42;;;;;;;6.28;5.43;;;;;;;18.49;34.54;102341.09;7310006;19;129486;-62
2022/01/16 07:05:10;;;;;;;7.43;5.40;;;;;;;18.49;34.50;102338.31;7311082;19;130459;-62
2022/01/16 07:07:36;;;;;;;7.53;6.00;;;;;;;18.49;34.13;102344.75;7309740;19;131463;-61
2022/01/16 07:10:04;;;;;;;5.57;5.03;;;;;;;18.52;34.21;102343.44;7309731;19;131715;-62
2022/01/16 07:12:31;;;;;;;6.25;5.30;;;;;;;18.59;34.04;102355.38;7313698;19;129044;-62
2022/01/16 07:14:57;;;;;;;5.32;4.82;;;;;;;18.69;34.38;102361.41;7308808;19;129494;-62
2022/01/16 07:17:24;;;;;;;5.63;5.00;;;;;;;18.86;33.89;102369.28;7313140;19;131118;-62
2022/01/16 07:19:51;;;;;;;5.50;4.78;;;;;;;19.12;33.81;102373.13;7307468;19;131897;-62
2022/01/16 07:22:21;;;;;;;5.68;4.80;;;;;;;19.37;33.46;102371.41;7313948;19;129100;-64
2022/01/16 07:24:50;;;;;;;6.63;4.63;;;;;;;19.67;33.08;102378.38;7308415;19;129933;-62
2022/01/16 07:27:18;;;;;;;7.40;5.68;;;;;;;19.95;32.81;102391.94;7310880;19;130817;-62
2022/01/16 07:29:44;;;;;;;5.18;4.65;;;;;;;20.21;32.86;102379.06;7309554;19;130908;-63
2022/01/16 07:32:11;;;;;;;5.65;4.38;;;;;;;20.45;32.27;102377.44;7308914;19;129094;-62
2022/01/16 07:34:38;;;;;;;5.85;4.82;;;;;;;20.68;31.89;102384.34;7313207;19;129915;-62
2022/01/16 07:37:05;;;;;;;7.28;4.85;;;;;;;20.88;31.80;102381.44;7308341;19;131257;-62
2022/01/16 07:39:31;;;;;;;5.28;4.07;;;;;;;21.06;31.29;102380.63;7313067;19;131045;-62
2022/01/16 07:41:58;;;;;;;5.30;4.70;;;;;;;21.22;31.65;102378.38;7306508;19;129771;-62
2022/01/16 07:44:25;;;;;;;5.50;4.40;;;;;;;21.33;31.41;102385.97;7313950;19;132765;-62
2022/01/16 07:46:52;;;;;;;4.95;4.45;;;;;;;21.43;31.38;102401.28;7305677;19;131504;-62
2022/01/16 07:49:18;;;;;;;5.75;4.40;;;;;;;21.46;31.26;102390.53;7311154;19;131116;-63
2022/01/16 07:51:45;;;;;;;5.18;4.63;;;;;;;21.47;30.93;102392.22;7311966;19;128885;-62
2022/01/16 07:54:12;;;;;;;6.00;4.55;;;;;;;21.45;30.75;102399.97;7311290;19;129403;-62
2022/01/16 07:56:38;;;;;;;6.68;4.80;;;;;;;21.41;31.22;102421.00;7311380;19;131269;-62
2022/01/16 07:59:05;;;;;;;5.72;4.57;;;;;;;21.34;30.80;102409.94;7308859;19;131167;-62
2022/01/16 08:01:32;;;;;;;7.55;5.00;;;;;;;21.29;30.87;102417.28;7312934;19;128981;-62
2022/01/16 08:03:59;;;;;;;6.32;4.60;;;;;;;21.21;30.99;102410.06;7308644;19;129107;-63
2022/01/16 08:06:30;;;;;;;4.50;4.10;;;;;;;21.13;30.94;102408.41;7312067;19;132051;-63
2022/01/16 08:08:57;;;;;;;5.13;4.32;;;;;;;21.05;31.25;102406.75;7309022;19;131398;-62
2022/01/16 08:11:23;;;;;;;7.70;4.53;;;;;;;20.96;31.32;102408.13;7310970;19;130136;-62
2022/01/16 08:13:50;;;;;;;5.85;4.60;;;;;;;20.87;31.32;102415.03;7308759;19;129443;-62
2022/01/16 08:16:17;;;;;;;5.13;4.50;;;;;;;20.80;31.35;102409.50;7310401;19;131092;-62
2022/01/16 08:18:44;;;;;;;6.38;4.63;;;;;;;20.73;31.80;102403.13;7309780;19;131166;-62
2022/01/16 08:21:10;;;;;;;5.47;4.72;;;;;;;20.65;31.48;102389.50;7307135;19;129592;-63
2022/01/16 08:23:37;;;;;;;5.50;4.43;;;;;;;20.56;31.80;102388.91;7312283;19;128925;-63
2022/01/16 08:26:04;;;;;;;5.32;4.82;;;;;;;20.49;31.90;102388.09;7306091;19;131234;-62
2022/01/16 08:28:31;;;;;;;5.32;4.65;;;;;;;20.43;32.12;102387.06;7309543;19;131155;-62
2022/01/16 08:30:58;;;;;;;5.95;5.35;;;;;;;20.38;32.04;102389.66;7310377;19;128901;-62
2022/01/16 08:33:24;;;;;;;8.13;5.05;;;;;;;20.35;31.71;102395.66;7307105;19;131321;-62
2022/01/16 08:35:51;;;;;;;7.07;5.78;;;;;;;20.32;31.76;102390.53;7309257;19;132690;-62
2022/01/16 08:38:18;;;;;;;6.68;5.90;;;;;;;20.29;31.51;102392.72;7304817;19;131095;-62
2022/01/16 08:40:45;;;;;;;11.65;6.88;;;;;;;20.27;31.60;102389.28;7310412;19;128860;-61
2022/01/16 08:43:11;;;;;;;11.95;8.68;;;;;;;20.26;31.40;102401.47;7307888;19;129023;-61
2022/01/16 08:45:40;;;;;;;11.73;7.60;;;;;;;20.27;31.03;102408.75;7309440;19;131280;-61
2022/01/16 08:48:08;;;;;;;11.88;7.90;;;;;;;20.31;31.38;102403.59;7308758;19;132010;-61
2022/01/16 08:50:38;;;;;;;11.25;8.07;;;;;;;20.38;31.35;102417.44;7307727;19;128959;-61
2022/01/16 08:53:05;;;;;;;10.07;7.00;;;;;;;20.47;30.86;102421.66;7311813;19;128865;-60
2022/01/16 08:55:33;;;;;;;12.50;7.65;;;;;;;20.56;31.20;102428.66;7307760;19;131986;-61
2022/01/16 08:58:01;;;;;;;11.50;7.85;;;;;;;20.71;30.68;102430.28;7311462;19;131349;-61
2022/01/16 09:00:28;;;;;;;14.13;7.95;;;;;;;20.84;30.61;102430.25;7313227;19;131190;-61
2022/01/16 09:02:57;;;;;;;10.88;7.63;;;;;;;20.99;30.31;102429.06;7317803;19;128810;-61
2022/01/16 09:05:25;;;;;;;12.95;7.85;;;;;;;21.10;30.19;102436.69;7315016;19;131105;-61
2022/01/16 09:07:53;;;;;;;12.55;8.32;;;;;;;21.21;30.48;102435.94;7315189;19;131055;-61
2022/01/16 09:10:20;;;;;;;11.45;7.78;;;;;;;21.30;30.05;102435.66;7317323;19;128958;-61
2022/01/16 09:12:47;;;;;;;12.93;8.77;;;;;;;21.35;30.10;102438.59;7312755;19;129027;-61
2022/01/16 09:15:14;;;;;;;16.55;8.93;;;;;;;21.41;30.33;102446.06;7317789;19;133108;-61
2022/01/16 09:17:41;;;;;;;12.13;8.80;;;;;;;21.47;30.09;102441.50;7311707;19;131024;-61
2022/01/16 09:20:09;;;;;;;14.45;9.68;;;;;;;21.54;30.08;102444.25;7317303;19;129109;-61
2022/01/16 09:22:39;;;;;;;13.10;9.23;;;;;;;21.61;30.33;102456.19;7313435;19;131674;-61
2022/01/16 09:25:08;;;;;;;13.23;9.27;;;;;;;21.64;30.40;102453.78;7313844;19;131208;-61
2022/01/16 09:27:34;;;;;;;17.33;9.38;;;;;;;21.63;30.51;102457.63;7313995;19;132142;-61
2022/01/16 09:30:01;;;;;;;17.05;9.10;;;;;;;21.64;30.55;102452.94;7312548;19;129465;-61
2022/01/16 09:32:28;;;;;;;18.25;9.90;;;;;;;21.65;30.68;102463.84;7317031;19;128971;-62
2022/01/16 09:34:55;;;;;;;19.58;8.43;;;;;;;21.70;30.46;102473.44;7313228;19;131245;-62
2022/01/16 09:37:22;;;;;;;14.38;7.47;;;;;;;21.73;30.53;102468.25;7315217;19;131162;-61
2022/01/16 09:39:50;;;;;;;15.35;8.30;;;;;;;21.77;30.66;102469.53;7311829;19;129002;-61
2022/01/16 09:42:20;;;;;;;11.65;8.18;;;;;;;21.83;30.78;102473.31;7312298;19;129251;-61
2022/01/16 09:44:47;;;;;;;14.38;8.15;;;;;;;21.87;30.65;102474.53;7314126;19;131132;-62
2022/01/16 09:47:14;;;;;;;13.40;8.07;;;;;;;21.89;30.72;102472.38;7311579;19;131136;-61
2022/01/16 09:49:42;;;;;;;11.02;7.40;;;;;;;21.91;31.04;102481.34;7315996;19;128820;-61
2022/01/16 09:52:09;;;;;;;15.00;8.35;;;;;;;21.92;30.91;102494.22;7311123;19;128905;-61
2022/01/16 09:54:37;;;;;;;20.35;8.20;;;;;;;21.93;31.45;102489.47;7314263;19;131569;-61
2022/01/16 09:57:05;;;;;;;14.50;8.25;;;;;;;21.95;31.43;102487.31;7312082;19;133285;-61
2022/01/16 09:59:31;;;;;;;12.68;8.57;;;;;;;21.97;31.47;102497.13;7311976;19;129061;-61
2022/01/16 10:01:58;;;;;;;17.38;9.00;;;;;;;22.00;31.81;102493.06;7313004;19;129446;-61
2022/01/16 10:04:33;;;;;;;12.60;9.00;;;;;;;22.04;31.67;102491.50;7310851;19;131417;-61
2022/01/16 10:07:03;;;;;;;16.83;9.40;;;;;;;22.06;31.44;102492.13;7311254;19;131891;-61
2022/01/16 10:09:30;;;;;;;14.23;10.18;;;;;;;22.07;31.53;102496.59;7311913;19;136859;-61
2022/01/16 10:12:03;;;;;;;19.33;11.05;;;;;;;22.10;31.92;102489.72;7313660;19;129083;-61
2022/01/16 10:14:43;;;;;;;15.75;10.35;;;;;;;22.12;31.77;102496.78;7314712;19;131624;-61
2022/01/16 10:17:12;;;;;;;16.58;11.07;;;;;;;22.13;31.87;102495.69;7311481;19;131881;-61
2022/01/16 10:19:39;;;;;;;15.18;10.77;;;;;;;22.13;31.94;102503.19;7311046;19;128840;-61
2022/01/16 10:22:09;;;;;;;15.48;10.43;;;;;;;22.15;32.29;102512.19;7291058;19;130818;-63
2022/01/16 10:24:39;;;;;;;15.13;10.20;;;;;;;22.15;32.31;102505.75;7300781;19;132457;-63
2022/01/16 10:27:08;;;;;;;15.55;9.93;;;;;;;22.17;32.10;102503.56;7299272;19;131075;-63
2022/01/16 10:29:42;;;;;;;14.25;10.48;;;;;;;22.18;32.40;102502.50;7303077;19;131099;-62
2022/01/16 10:32:22;;;;;;;14.77;10.52;;;;;;;22.18;32.87;102508.06;7300152;19;129735;-63
2022/01/16 10:34:52;;;;;;;17.80;11.05;;;;;;;22.17;32.98;102506.34;7300790;19;132542;-62
2022/01/16 10:37:31;;;;;;;16.95;9.70;;;;;;;22.14;32.90;102510.47;7303897;19;132117;-62
2022/01/16 10:40:19;;;;;;;13.38;10.15;;;;;;;22.09;32.93;102516.75;7298258;19;128999;-62
2022/01/16 10:42:51;;;;;;;15.48;9.80;;;;;;;22.03;33.29;102505.66;7303760;19;129402;-62
2022/01/16 10:45:23;;;;;;;19.40;10.07;;;;;;;21.98;33.47;102504.41;7297994;19;131887;-62
2022/01/16 10:47:53;;;;;;;14.05;10.00;;;;;;;21.91;33.71;102491.66;7302147;19;133242;-62
2022/01/16 10:50:31;;;;;;;18.33;9.95;;;;;;;21.85;34.73;102487.00;7300090;19;132386;-62
2022/01/16 10:52:59;;;;;;;16.08;10.40;;;;;;;21.77;34.97;102497.38;7291667;19;129593;-62
2022/01/16 10:55:40;;;;;;;15.57;9.95;;;;;;;21.71;35.09;102503.84;7302387;19;131237;-62
2022/01/16 10:58:15;;;;;;;17.08;9.80;;;;;;;21.63;35.36;102501.38;7298934;19;131844;-61
2022/01/16 11:01:00;;;;;;;16.02;9.18;;;;;;;21.54;35.93;102499.97;7302977;19;128972;-62
2022/01/16 11:03:29;;;;;;;13.65;9.27;;;;;;;21.44;36.02;102497.66;7299466;19;129130;-62
2022/01/16 11:05:56;;;;;;;14.95;9.68;;;;;;;21.35;36.01;102499.84;7301672;19;131137;-63
2022/01/16 11:08:25;;;;;;;14.70;9.68;;;;;;;21.26;36.61;102507.63;7301721;19;131114;-61
2022/01/16 11:10:56;;;;;;;14.60;9.85;;;;;;;21.19;36.47;102512.41;7301743;19;130706;-62
2022/01/16 11:13:30;;;;;;;18.75;10.27;;;;;;;21.11;37.16;102523.81;7303326;19;128848;-62
2022/01/16 11:15:59;;;;;;;15.90;9.82;;;;;;;21.02;37.10;102535.19;7297279;19;134082;-63
2022/01/16 11:18:26;;;;;;;14.57;9.70;;;;;;;20.97;37.20;102531.38;7303615;19;131340;-62
2022/01/16 11:26:22;;;;;;;18.13;10.93;;;;;;;20.72;36.69;102541.34;7298899;19;132109;-62
2022/01/16 11:28:54;;;;;;;19.02;10.68;;;;;;;20.66;36.42;102530.25;7300099;19;131820;-62
2022/01/16 11:31:21;;;;;;;19.17;10.25;;;;;;;20.59;36.78;102531.09;7299843;19;130412;-62
2022/01/16 11:33:48;;;;;;;14.57;10.88;;;;;;;20.51;36.78;102520.25;7290947;19;131691;-63
2022/01/16 11:36:20;;;;;;;16.23;9.95;;;;;;;20.47;36.76;102532.88;7300701;19;131284;-62
2022/01/16 11:38:56;;;;;;;17.85;10.15;;;;;;;20.40;36.78;102521.78;7297514;19;131290;-62
2022/01/16 11:41:33;;;;;;;14.52;10.25;;;;;;;20.36;36.98;102516.88;7301756;19;129611;-62
2022/01/16 11:44:08;;;;;;;14.00;10.05;;;;;;;20.33;37.40;102514.53;7297504;19;129032;-62
2022/01/16 11:46:48;;;;;;;15.27;9.32;;;;;;;20.29;37.20;102512.22;7298015;19;132243;-63
2022/01/16 11:49:19;;;;;;;14.80;9.10;;;;;;;20.26;37.28;102504.31;7300006;19;131193;-62
2022/01/16 11:51:51;;;;;;;15.27;9.77;;;;;;;20.24;37.17;102528.69;7298944;19;131859;-62
2022/01/16 11:54:21;;;;;;;14.88;9.75;;;;;;;20.23;37.15;102563.09;7300705;19;129063;-62
2022/01/16 11:56:50;;;;;;;12.95;9.43;;;;;;;20.21;37.06;102558.84;7294338;19;131386;-62
2022/01/16 11:59:30;;;;;;;14.95;9.25;;;;;;;20.20;37.59;102555.19;7299352;19;131468;-63
2022/01/16 12:02:09;;;;;;;13.32;9.50;;;;;;;20.19;37.34;102556.25;7294270;19;129504;-62
2022/01/16 12:04:36;;;;;;;14.93;8.98;;;;;;;20.15;37.47;102541.09;7298290;19;129905;-63